May 9-11, 2024
|
Azusa Pacific (O) - Azusa, CA
ICON KEY: NCAA DII Prov NAIA A NAIA B

Women's 800 Meters

Top↑
PL NAME YEAR TEAM TIME TIME TIME
1 Sarah Jane Underwood   City Speed SF 2:02.75 1:51.71 2:16.26
2 Sadie-Jane Hickson   Royal City Athletics Club 2:05.49 1:27.85 2:24.32
3 Aziza Ayoub   Garden State TC 2:05.60 1:56.81 2:18.16
4 Lina Hanich JR-3 Academy of Art 2:06.62 2:00.29 2:01.56
5 Anna Connor   Cascadia Elite 2:06.77 1:32.55 1:38.88
6 Julia Agostinelli Senior Royal City Athletics Club 2:07.29 1:52.02 2:03.48
7 Sofia Camacho JR-3 Azusa Pacific 2:07.80 1:46.08 2:15.47
8 Brooke Miller SO-2 Colorado Mesa 2:10.27 2:46.75 2:07.67
9 Ines Macadam JR-3 Tiffin 2:10.30 2:02.49 2:35.06
10 Mia Salinas JR-3 San Marcos 2:10.64 2:08.03 2:09.34
11 Kaho Cichon Sophomore Unattached 2:10.81 2:48.75 2:08.20
12 Aubrie Nex JR-3 Point Loma 2:10.97 2:10.97 2:04.43
13 Sara Diener Senior Unattached 2:11.89 1:53.43 2:03.98
14 Michaela Andrews JR-3 Academy of Art 2:12.17 1:45.74 2:26.71
15 Ellen Palmgren SR-4 The Master's 2:12.57 2:28.48 2:45.72
16 Breanna Steele SO-2 Southwestern (Tex.) 2:12.87 2:04.90 2:35.46
17 Gabriela Lues FR-1 Colorado College 2:13.02 2:52.93 2:19.68
18 Suzie Johnson SO-2 The Master's 2:13.17 2:14.51 2:51.79
19 Hinako Yamamoto Freshman Unattached 2:13.27 1:42.62 2:50.59
20 Caroline Graham SO-2 Pepperdine 2:13.91 2:50.07 1:40.44
21 Porshe Eismann JR-3 CUI 2:14.17 2:31.62 2:22.22
22 Michaela Jones SR-4 Pomona-Pitzer 2:15.19 2:26.01 2:04.38
23 Camille Lindsay FR-1 UC San Diego 2:15.21 2:35.50 1:45.47
24 Trista Michael   Performance Elite RC 2:15.61 2:14.26 2:25.11
25 Chelsey Romo SR-4 UC San Diego 2:15.73 2:41.52 2:40.17
26 Elena Stanciu FR-1 UC Santa Cruz 2:16.28 1:40.85 1:39.49
27 Allyson Abandonato SO-2 UC San Diego 2:16.75 2:16.75 2:22.22
28 Abby Winter SO-2 Pepperdine 2:16.87 2:23.72 2:04.56
29 Georgia Keller Freshman Unattached 2:17.23 2:17.23 2:17.23
30 Maggie Williams SO-2 Biola 2:17.27 2:33.75 1:59.43
31 Lauren Wagner SR-4 Loyola Marymount 2:17.48 2:25.73 2:25.73
32 Meilani Castillo FR-1 UC San Diego 2:17.95 1:54.50 2:28.99
33 Angela McManus SO-2 San Marcos 2:18.75 1:48.23 1:46.84
34 Ella Voris FR-1 Biola 2:18.92 1:45.58 2:06.42
35 Ashley Eagan SO-2 Pepperdine 2:19.58 2:50.29 2:18.19
36 Yasmin Ghaneh Senior Unattached 2:19.90 2:47.88 2:03.12
37 Maia Fernando SO-2 Azusa Pacific 2:20.00 1:50.60 2:29.80
38 Emma Mills JR-3 San Marcos 2:20.30 2:28.72 2:13.29
39 Janelle Santos SO-2 Azusa Pacific 2:21.26 2:19.85 2:53.75
40 Allison Yim Junior Unattached 2:21.74 2:01.90 2:14.66
41 Maria Texis JR-3 San Marcos 2:21.86 2:09.10 2:43.14
42 Kelsey McFaul   A Runner's Circle (ARC) 2:22.99 2:04.41 2:01.55
43 Isabella Flores Freshman Unattached 2:23.17 2:53.24 3:04.69
44 Peyton Carrera SO-2 La Verne 2:23.30 2:20.44 2:59.13
45 Alexa Bryson   Unattached 2:23.68 2:27.99 2:06.44
46 Taylar Yost JR-3 CSUMB 2:23.88 2:46.90 2:03.74
47 Jayde Lim Senior Unattached 2:24.55 1:41.19 1:46.97
48 Catherine Palm   Valor Track Club 2:24.67 2:55.05 1:45.61
49 Caitlin Ree Senior Ucla Club Track 2:25.34 2:22.44 3:07.49
50 Madelyn Basinet FR-1 UC Santa Cruz 2:25.87 2:20.04 2:34.63
51 Kelly Sellman Junior Unattached 2:25.94 2:11.35 2:49.29
52 Cece Matteson SR-4 Redlands 2:26.31 1:57.05 1:57.05
53 Kathleen Power SO-2 Loyola Marymount 2:28.48 2:07.70 2:15.12
54 Amy Becker   Cal Poly DC 2:28.89 2:03.58 2:55.69
55 Kimberly Willard FR-1 UC San Diego 2:29.10 1:51.83 1:59.28
56 Lilly Sepulveda Senior Unattached 2:29.56 2:32.56 2:47.51
57 Bellela Colas SO-2 Vanguard 2:29.68 3:10.10 3:13.09
58 Kayla Renner FR-1 Pepperdine 2:30.16 2:28.66 2:31.67
59 Cadence Youngman FR-1 Azusa Pacific 2:34.18 2:57.31 2:54.23
60 Kiran McWilliams FR-1 Azusa Pacific 2:35.50 3:05.05 3:19.04
61 Elizabeth Guerrini   CalCoast 2:53.44 3:24.66 3:07.32
Women's 800 Meters Section 1
PL NAME YEAR TEAM TIME
1 Sarah Jane Underwood   City Speed SF 2:02.75
2 Sadie-Jane Hickson   Royal City Athletics Club 2:05.49
3 Aziza Ayoub   Garden State TC 2:05.60
4 Lina Hanich JR-3 Academy of Art 2:06.62
5 Anna Connor   Cascadia Elite 2:06.77
6 Julia Agostinelli Senior Royal City Athletics Club 2:07.29
7 Sofia Camacho JR-3 Azusa Pacific 2:07.80
21 Porshe Eismann JR-3 CUI 2:14.17
Women's 800 Meters Section 2
PL NAME YEAR TEAM TIME TIME TIME TIME TIME
8 Brooke Miller SO-2 Colorado Mesa 2:18.09 2:18.09 1:45.52 2:10.27 2:37.63
9 Ines Macadam JR-3 Tiffin 2:03.79 1:49.46 2:40.27 2:10.30 1:45.55
10 Mia Salinas JR-3 San Marcos 1:37.98 1:51.05 2:05.42 2:10.64 1:35.37
12 Aubrie Nex JR-3 Point Loma 1:50.02 1:46.09 1:36.92 2:10.97 1:52.64
13 Sara Diener Senior Unattached 2:50.14 2:21.13 1:36.28 2:11.89 1:37.60
15 Ellen Palmgren SR-4 The Master's 2:25.83 2:47.04 2:32.46 2:12.57 2:37.76
18 Suzie Johnson SO-2 The Master's 1:43.88 1:58.53 2:38.48 2:13.17 1:35.89
30 Maggie Williams SO-2 Biola 2:57.08 1:51.19 2:17.27 2:17.27 1:51.19
Women's 800 Meters Section 3
PL NAME YEAR TEAM TIME
11 Kaho Cichon Sophomore Unattached 2:10.81
14 Michaela Andrews JR-3 Academy of Art 2:12.17
16 Breanna Steele SO-2 Southwestern (Tex.) 2:12.87
17 Gabriela Lues FR-1 Colorado College 2:13.02
19 Hinako Yamamoto Freshman Unattached 2:13.27
20 Caroline Graham SO-2 Pepperdine 2:13.91
22 Michaela Jones SR-4 Pomona-Pitzer 2:15.19
25 Chelsey Romo SR-4 UC San Diego 2:15.73
Women's 800 Meters Section 4
PL NAME YEAR TEAM TIME TIME TIME TIME
26 Elena Stanciu FR-1 UC Santa Cruz 1:44.94 2:16.28 2:36.73 2:36.73
27 Allyson Abandonato SO-2 UC San Diego 2:30.43 2:16.75 2:45.47 2:57.78
29 Georgia Keller Freshman Unattached 1:45.67 2:17.23 2:39.19 2:32.33
31 Lauren Wagner SR-4 Loyola Marymount 1:44.49 2:17.48 2:55.98 2:02.36
32 Meilani Castillo FR-1 UC San Diego 2:23.47 2:17.95 2:55.20 2:56.58
33 Angela McManus SO-2 San Marcos 2:34.02 2:18.75 2:25.69 2:34.02
34 Ella Voris FR-1 Biola 1:46.97 2:18.92 2:43.93 1:44.19
38 Emma Mills JR-3 San Marcos 1:59.26 2:20.30 2:18.90 2:16.10
Women's 800 Meters Section 5
PL NAME YEAR TEAM TIME TIME TIME
23 Camille Lindsay FR-1 UC San Diego 2:15.21 1:34.65 1:57.64
24 Trista Michael   Performance Elite RC 2:15.61 1:53.92 1:59.34
28 Abby Winter SO-2 Pepperdine 2:16.87 1:56.34 2:56.57
36 Yasmin Ghaneh Senior Unattached 2:19.90 2:54.88 2:07.31
39 Janelle Santos SO-2 Azusa Pacific 2:21.26 2:32.56 2:15.61
41 Maria Texis JR-3 San Marcos 2:21.86 2:24.70 2:09.10
52 Cece Matteson SR-4 Redlands 2:26.31 2:48.26 1:58.52
55 Kimberly Willard FR-1 UC San Diego 2:29.10 2:39.54 2:55.94
Women's 800 Meters Section 6
PL NAME YEAR TEAM TIME TIME TIME
35 Ashley Eagan SO-2 Pepperdine 2:40.52 2:53.08 2:19.58
37 Maia Fernando SO-2 Azusa Pacific 2:24.20 2:14.40 2:20.00
45 Alexa Bryson   Unattached 2:30.87 1:49.20 2:23.68
46 Taylar Yost JR-3 CSUMB 2:41.15 3:02.73 2:23.88
47 Jayde Lim Senior Unattached 1:46.97 2:56.36 2:24.55
49 Caitlin Ree Senior Ucla Club Track 3:00.23 2:26.80 2:25.34
58 Kayla Renner FR-1 Pepperdine 2:19.65 2:06.14 2:30.16
Women's 800 Meters Section 7
PL NAME YEAR TEAM TIME TIME TIME TIME
40 Allison Yim Junior Unattached 2:21.74 1:51.98 2:58.60 1:47.73
42 Kelsey McFaul   A Runner's Circle (ARC) 2:22.99 2:11.55 1:50.11 1:40.10
43 Isabella Flores Freshman Unattached 2:23.17 2:36.06 2:50.38 2:44.65
44 Peyton Carrera SO-2 La Verne 2:23.30 2:33.34 2:47.67 2:36.20
48 Catherine Palm   Valor Track Club 2:24.67 2:55.05 2:39.14 2:15.99
50 Madelyn Basinet FR-1 UC Santa Cruz 2:25.87 2:15.66 2:28.79 2:57.97
51 Kelly Sellman Junior Unattached 2:25.94 3:03.89 2:33.24 1:55.30
59 Cadence Youngman FR-1 Azusa Pacific 2:34.18 3:18.90 2:17.22 2:01.81
Women's 800 Meters Section 8
PL NAME YEAR TEAM TIME
53 Kathleen Power SO-2 Loyola Marymount 2:28.48
54 Amy Becker   Cal Poly DC 2:28.89
56 Lilly Sepulveda Senior Unattached 2:29.56
57 Bellela Colas SO-2 Vanguard 2:29.68
60 Kiran McWilliams FR-1 Azusa Pacific 2:35.50
61 Elizabeth Guerrini   CalCoast 2:53.44